sensor_id;sensor_type;location;lat;lon;timestamp;pressure;altitude;pressure_sealevel;temperature;humidity
14343;BME280;7255;53.596;9.960;2023-12-20T00:01:35;100645.16;;;5.27;nan
14343;BME280;7255;53.596;9.960;2023-12-20T00:04:02;100640.22;;;5.24;nan
14343;BME280;7255;53.596;9.960;2023-12-20T00:06:30;100627.53;;;5.26;nan
14343;BME280;7255;53.596;9.960;2023-12-20T00:08:56;100627.47;;;5.19;nan
14343;BME280;7255;53.596;9.960;2023-12-20T00:11:24;100632.38;;;5.16;nan
14343;BME280;7255;53.596;9.960;2023-12-20T00:13:50;100608.97;;;5.11;nan
14343;BME280;7255;53.596;9.960;2023-12-20T00:16:16;100623.75;;;5.14;nan
14343;BME280;7255;53.596;9.960;2023-12-20T00:18:43;100617.16;;;5.10;nan
14343;BME280;7255;53.596;9.960;2023-12-20T00:21:09;100627.41;;;5.13;nan
14343;BME280;7255;53.596;9.960;2023-12-20T00:23:37;100621.72;;;5.16;nan
14343;BME280;7255;53.596;9.960;2023-12-20T00:26:03;100621.72;;;5.16;nan
14343;BME280;7255;53.596;9.960;2023-12-20T00:28:30;100613.16;;;5.20;nan
14343;BME280;7255;53.596;9.960;2023-12-20T00:30:56;100623.03;;;5.27;nan
14343;BME280;7255;53.596;9.960;2023-12-20T00:33:22;100610.03;;;5.38;nan
14343;BME280;7255;53.596;9.960;2023-12-20T00:35:48;100601.00;;;5.39;nan
14343;BME280;7255;53.596;9.960;2023-12-20T00:38:15;100614.91;;;5.35;nan
14343;BME280;7255;53.596;9.960;2023-12-20T00:40:43;100600.56;;;5.36;nan
14343;BME280;7255;53.596;9.960;2023-12-20T00:43:09;100604.19;;;5.28;nan
14343;BME280;7255;53.596;9.960;2023-12-20T00:45:35;100600.13;;;5.32;nan
14343;BME280;7255;53.596;9.960;2023-12-20T00:48:02;100603.84;;;5.38;nan
14343;BME280;7255;53.596;9.960;2023-12-20T00:50:28;100601.88;;;5.47;nan
14343;BME280;7255;53.596;9.960;2023-12-20T00:52:55;100598.62;;;5.51;nan
14343;BME280;7255;53.596;9.960;2023-12-20T00:55:21;100572.44;;;5.62;nan
14343;BME280;7255;53.596;9.960;2023-12-20T00:57:49;100593.31;;;5.51;nan
14343;BME280;7255;53.596;9.960;2023-12-20T01:00:15;100592.47;;;5.51;nan
14343;BME280;7255;53.596;9.960;2023-12-20T01:02:42;100590.03;;;5.56;nan
14343;BME280;7255;53.596;9.960;2023-12-20T01:05:08;100580.19;;;5.56;nan
14343;BME280;7255;53.596;9.960;2023-12-20T01:07:34;100580.19;;;5.50;nan
14343;BME280;7255;53.596;9.960;2023-12-20T01:10:01;100580.13;;;5.43;nan
14343;BME280;7255;53.596;9.960;2023-12-20T01:12:27;100591.50;;;5.30;nan
14343;BME280;7255;53.596;9.960;2023-12-20T01:14:55;100579.97;;;5.23;nan
14343;BME280;7255;53.596;9.960;2023-12-20T01:17:21;100576.19;;;5.11;nan
14343;BME280;7255;53.596;9.960;2023-12-20T01:19:47;100585.19;;;5.10;nan
14343;BME280;7255;53.596;9.960;2023-12-20T01:22:14;100566.31;;;5.05;nan
14343;BME280;7255;53.596;9.960;2023-12-20T01:24:40;100569.59;;;5.07;nan
14343;BME280;7255;53.596;9.960;2023-12-20T01:27:07;100565.84;;;5.01;nan
14343;BME280;7255;53.596;9.960;2023-12-20T01:29:33;100565.03;;;5.00;nan
14343;BME280;7255;53.596;9.960;2023-12-20T01:32:01;100561.75;;;4.98;nan
14343;BME280;7255;53.596;9.960;2023-12-20T01:34:27;100559.72;;;5.00;nan
14343;BME280;7255;53.596;9.960;2023-12-20T01:36:54;100550.59;;;4.88;nan
14343;BME280;7255;53.596;9.960;2023-12-20T01:39:20;100537.03;;;4.83;nan
14343;BME280;7255;53.596;9.960;2023-12-20T01:41:46;100560.81;;;4.85;nan
14343;BME280;7255;53.596;9.960;2023-12-20T01:44:13;100557.06;;;4.79;nan
14343;BME280;7255;53.596;9.960;2023-12-20T01:46:39;100553.78;;;4.77;nan
14343;BME280;7255;53.596;9.960;2023-12-20T01:49:07;100555.84;;;4.81;nan
14343;BME280;7255;53.596;9.960;2023-12-20T01:51:34;100550.97;;;4.85;nan
14343;BME280;7255;53.596;9.960;2023-12-20T01:54:01;100555.91;;;4.88;nan
14343;BME280;7255;53.596;9.960;2023-12-20T01:56:28;100541.97;;;4.86;nan
14343;BME280;7255;53.596;9.960;2023-12-20T01:58:56;100552.25;;;4.89;nan
14343;BME280;7255;53.596;9.960;2023-12-20T02:01:22;100533.41;;;4.91;nan
14343;BME280;7255;53.596;9.960;2023-12-20T02:03:49;100535.00;;;4.85;nan
14343;BME280;7255;53.596;9.960;2023-12-20T02:06:18;100528.03;;;4.84;nan
14343;BME280;7255;53.596;9.960;2023-12-20T02:08:45;100523.97;;;4.88;nan
14343;BME280;7255;53.596;9.960;2023-12-20T02:11:11;100530.50;;;4.86;nan
14343;BME280;7255;53.596;9.960;2023-12-20T02:13:38;100522.75;;;4.91;nan
14343;BME280;7255;53.596;9.960;2023-12-20T02:16:04;100530.53;;;4.92;nan
14343;BME280;7255;53.596;9.960;2023-12-20T02:18:32;100506.78;;;4.91;nan
14343;BME280;7255;53.596;9.960;2023-12-20T02:20:59;100520.31;;;4.89;nan
14343;BME280;7255;53.596;9.960;2023-12-20T02:23:26;100516.59;;;4.90;nan
14343;BME280;7255;53.596;9.960;2023-12-20T02:25:52;100505.03;;;4.76;nan
14343;BME280;7255;53.596;9.960;2023-12-20T02:28:19;100509.66;;;4.89;nan
14343;BME280;7255;53.596;9.960;2023-12-20T02:30:46;100516.59;;;4.90;nan
14343;BME280;7255;53.596;9.960;2023-12-20T02:33:15;100512.94;;;4.91;nan
14343;BME280;7255;53.596;9.960;2023-12-20T02:35:41;100502.75;;;5.01;nan
14343;BME280;7255;53.596;9.960;2023-12-20T02:38:07;100492.13;;;5.01;nan
14343;BME280;7255;53.596;9.960;2023-12-20T02:40:35;100484.37;;;5.07;nan
14343;BME280;7255;53.596;9.960;2023-12-20T02:43:02;100517.69;;;5.24;nan
14343;BME280;7255;53.596;9.960;2023-12-20T02:45:28;100506.62;;;5.27;nan
14343;BME280;7255;53.596;9.960;2023-12-20T02:47:54;100509.47;;;5.19;nan
14343;BME280;7255;53.596;9.960;2023-12-20T02:50:21;100502.47;;;5.18;nan
14343;BME280;7255;53.596;9.960;2023-12-20T02:52:47;100493.84;;;5.16;nan
14343;BME280;7255;53.596;9.960;2023-12-20T02:55:14;100507.84;;;5.25;nan
14343;BME280;7255;53.596;9.960;2023-12-20T02:57:42;100510.47;;;5.46;nan
14343;BME280;7255;53.596;9.960;2023-12-20T03:00:09;100507.19;;;5.51;nan
14343;BME280;7255;53.596;9.960;2023-12-20T03:02:35;100500.53;;;5.33;nan
14343;BME280;7255;53.596;9.960;2023-12-20T03:05:02;100489.47;;;5.36;nan
14343;BME280;7255;53.596;9.960;2023-12-20T03:07:29;100499.31;;;5.36;nan
14343;BME280;7255;53.596;9.960;2023-12-20T03:09:55;100498.19;;;5.52;nan
14343;BME280;7255;53.596;9.960;2023-12-20T03:12:21;100488.72;;;5.49;nan
14343;BME280;7255;53.596;9.960;2023-12-20T03:14:49;100487.03;;;5.42;nan
14343;BME280;7255;53.596;9.960;2023-12-20T03:17:15;100495.28;;;5.47;nan
14343;BME280;7255;53.596;9.960;2023-12-20T03:19:41;100481.28;;;5.31;nan
14343;BME280;7255;53.596;9.960;2023-12-20T03:22:08;100483.75;;;5.39;nan
14343;BME280;7255;53.596;9.960;2023-12-20T03:24:34;100478.88;;;5.43;nan
14343;BME280;7255;53.596;9.960;2023-12-20T03:27:00;100469.50;;;5.54;nan
14343;BME280;7255;53.596;9.960;2023-12-20T03:29:27;100463.31;;;5.47;nan
14343;BME280;7255;53.596;9.960;2023-12-20T03:31:54;100444.47;;;5.48;nan
14343;BME280;7255;53.596;9.960;2023-12-20T03:34:21;100452.59;;;5.40;nan
14343;BME280;7255;53.596;9.960;2023-12-20T03:36:47;100445.59;;;5.26;nan
14343;BME280;7255;53.596;9.960;2023-12-20T03:39:13;100414.00;;;5.23;nan
14343;BME280;7255;53.596;9.960;2023-12-20T03:41:40;100453.41;;;5.34;nan
14343;BME280;7255;53.596;9.960;2023-12-20T03:44:06;100422.25;;;5.34;nan
14343;BME280;7255;53.596;9.960;2023-12-20T03:46:32;100435.75;;;5.33;nan
14343;BME280;7255;53.596;9.960;2023-12-20T03:49:00;100464.00;;;5.27;nan
14343;BME280;7255;53.596;9.960;2023-12-20T03:51:26;100451.78;;;5.39;nan
14343;BME280;7255;53.596;9.960;2023-12-20T03:53:52;100449.75;;;5.42;nan
14343;BME280;7255;53.596;9.960;2023-12-20T03:56:19;100446.47;;;5.39;nan
14343;BME280;7255;53.596;9.960;2023-12-20T03:58:45;100435.38;;;5.36;nan
14343;BME280;7255;53.596;9.960;2023-12-20T04:01:11;100421.06;;;5.44;nan
14343;BME280;7255;53.596;9.960;2023-12-20T04:03:38;100438.22;;;5.34;nan
14343;BME280;7255;53.596;9.960;2023-12-20T04:06:06;100431.66;;;5.30;nan
14343;BME280;7255;53.596;9.960;2023-12-20T04:08:33;100437.84;;;5.37;nan
14343;BME280;7255;53.596;9.960;2023-12-20T04:10:59;100422.69;;;5.38;nan
14343;BME280;7255;53.596;9.960;2023-12-20T04:13:25;100425.53;;;5.36;nan
14343;BME280;7255;53.596;9.960;2023-12-20T04:15:51;100414.09;;;5.43;nan
14343;BME280;7255;53.596;9.960;2023-12-20T04:18:18;100422.72;;;5.45;nan
14343;BME280;7255;53.596;9.960;2023-12-20T04:20:44;100409.63;;;5.56;nan
14343;BME280;7255;53.596;9.960;2023-12-20T04:23:12;100418.25;;;5.58;nan
14343;BME280;7255;53.596;9.960;2023-12-20T04:25:38;100405.53;;;5.54;nan
14343;BME280;7255;53.596;9.960;2023-12-20T04:28:05;100402.69;;;5.55;nan
14343;BME280;7255;53.596;9.960;2023-12-20T04:30:31;100401.06;;;5.61;nan
14343;BME280;7255;53.596;9.960;2023-12-20T04:32:57;100388.28;;;5.43;nan
14343;BME280;7255;53.596;9.960;2023-12-20T04:35:24;100389.53;;;5.54;nan
14343;BME280;7255;53.596;9.960;2023-12-20T04:37:50;100401.06;;;5.61;nan
14343;BME280;7255;53.596;9.960;2023-12-20T04:40:18;100399.44;;;5.67;nan
14343;BME280;7255;53.596;9.960;2023-12-20T04:42:44;100380.13;;;5.51;nan
14343;BME280;7255;53.596;9.960;2023-12-20T04:45:10;100364.94;;;5.52;nan
14343;BME280;7255;53.596;9.960;2023-12-20T04:47:38;100372.69;;;5.47;nan
14343;BME280;7255;53.596;9.960;2023-12-20T04:50:06;100371.47;;;5.43;nan
14343;BME280;7255;53.596;9.960;2023-12-20T04:52:32;100367.75;;;5.44;nan
14343;BME280;7255;53.596;9.960;2023-12-20T04:54:59;100370.62;;;5.42;nan
14343;BME280;7255;53.596;9.960;2023-12-20T04:57:27;100351.78;;;5.37;nan
14343;BME280;7255;53.596;9.960;2023-12-20T04:59:53;100357.50;;;5.34;nan
14343;BME280;7255;53.596;9.960;2023-12-20T05:02:19;100362.41;;;5.30;nan
14343;BME280;7255;53.596;9.960;2023-12-20T05:04:46;100354.63;;;5.42;nan
14343;BME280;7255;53.596;9.960;2023-12-20T05:07:12;100358.78;;;5.51;nan
14343;BME280;7255;53.596;9.960;2023-12-20T05:09:38;100357.56;;;5.54;nan
14343;BME280;7255;53.596;9.960;2023-12-20T05:12:05;100362.87;;;5.54;nan
14343;BME280;7255;53.596;9.960;2023-12-20T05:14:33;100364.94;;;5.52;nan
14343;BME280;7255;53.596;9.960;2023-12-20T05:16:59;100345.66;;;5.50;nan
14343;BME280;7255;53.596;9.960;2023-12-20T05:19:26;100360.38;;;5.46;nan
14343;BME280;7255;53.596;9.960;2023-12-20T05:21:52;100349.72;;;5.46;nan
14343;BME280;7255;53.596;9.960;2023-12-20T05:24:19;100358.75;;;5.45;nan
14343;BME280;7255;53.596;9.960;2023-12-20T05:26:45;100341.13;;;5.44;nan
14343;BME280;7255;53.596;9.960;2023-12-20T05:29:11;100345.25;;;5.46;nan
14343;BME280;7255;53.596;9.960;2023-12-20T05:31:39;100339.91;;;5.53;nan
14343;BME280;7255;53.596;9.960;2023-12-20T05:34:05;100348.16;;;5.65;nan
14343;BME280;7255;53.596;9.960;2023-12-20T05:36:31;100347.75;;;5.74;nan
14343;BME280;7255;53.596;9.960;2023-12-20T05:38:58;100354.75;;;5.82;nan
14343;BME280;7255;53.596;9.960;2023-12-20T05:41:24;100349.84;;;5.79;nan
14343;BME280;7255;53.596;9.960;2023-12-20T05:43:50;100344.09;;;5.75;nan
14343;BME280;7255;53.596;9.960;2023-12-20T05:46:17;100353.09;;;5.74;nan
14343;BME280;7255;53.596;9.960;2023-12-20T05:48:45;100344.44;;;5.52;nan
14343;BME280;7255;53.596;9.960;2023-12-20T05:51:11;100343.59;;;5.45;nan
14343;BME280;7255;53.596;9.960;2023-12-20T05:53:37;100343.62;;;5.52;nan
14343;BME280;7255;53.596;9.960;2023-12-20T05:56:04;100332.16;;;5.51;nan
14343;BME280;7255;53.596;9.960;2023-12-20T05:58:31;100329.66;;;5.43;nan
14343;BME280;7255;53.596;9.960;2023-12-20T06:00:58;100335.81;;;5.50;nan
14343;BME280;7255;53.596;9.960;2023-12-20T06:03:24;100339.09;;;5.52;nan
14343;BME280;7255;53.596;9.960;2023-12-20T06:05:52;100387.53;;;5.63;nan
14343;BME280;7255;53.596;9.960;2023-12-20T06:08:18;100346.94;;;5.67;nan
14343;BME280;7255;53.596;9.960;2023-12-20T06:10:44;100340.38;;;5.63;nan
14343;BME280;7255;53.596;9.960;2023-12-20T06:13:11;100337.91;;;5.62;nan
14343;BME280;7255;53.596;9.960;2023-12-20T06:15:38;100321.50;;;5.65;nan
14343;BME280;7255;53.596;9.960;2023-12-20T06:18:05;100306.72;;;5.55;nan
14343;BME280;7255;53.596;9.960;2023-12-20T06:20:31;100306.34;;;5.65;nan
14343;BME280;7255;53.596;9.960;2023-12-20T06:22:59;100306.78;;;5.75;nan
14343;BME280;7255;53.596;9.960;2023-12-20T06:25:26;100304.28;;;5.61;nan
14343;BME280;7255;53.596;9.960;2023-12-20T06:27:52;100310.81;;;5.58;nan
14343;BME280;7255;53.596;9.960;2023-12-20T06:30:18;100305.50;;;5.51;nan
14343;BME280;7255;53.596;9.960;2023-12-20T06:32:44;100302.59;;;5.39;nan
14343;BME280;7255;53.596;9.960;2023-12-20T06:35:12;100316.13;;;5.45;nan
14343;BME280;7255;53.596;9.960;2023-12-20T06:37:38;100309.56;;;5.47;nan
14343;BME280;7255;53.596;9.960;2023-12-20T06:40:09;100300.56;;;5.48;nan
14343;BME280;7255;53.596;9.960;2023-12-20T06:42:35;100295.25;;;5.48;nan
14343;BME280;7255;53.596;9.960;2023-12-20T06:45:02;100294.84;;;5.58;nan
14343;BME280;7255;53.596;9.960;2023-12-20T06:47:29;100292.41;;;5.70;nan
14343;BME280;7255;53.596;9.960;2023-12-20T06:49:55;100290.34;;;5.72;nan
14343;BME280;7255;53.596;9.960;2023-12-20T06:52:21;100295.69;;;5.78;nan
14343;BME280;7255;53.596;9.960;2023-12-20T06:54:48;100286.28;;;5.83;nan
14343;BME280;7255;53.596;9.960;2023-12-20T06:57:15;100275.19;;;5.86;nan
14343;BME280;7255;53.596;9.960;2023-12-20T06:59:42;100279.28;;;5.82;nan
14343;BME280;7255;53.596;9.960;2023-12-20T07:02:09;100273.56;;;5.85;nan
14343;BME280;7255;53.596;9.960;2023-12-20T07:04:39;100273.94;;;5.82;nan
14343;BME280;7255;53.596;9.960;2023-12-20T07:07:05;100268.63;;;5.82;nan
14343;BME280;7255;53.596;9.960;2023-12-20T07:09:32;100259.19;;;5.86;nan
14343;BME280;7255;53.596;9.960;2023-12-20T07:11:59;100270.28;;;5.83;nan
14343;BME280;7255;53.596;9.960;2023-12-20T07:14:26;100260.81;;;5.80;nan
14343;BME280;7255;53.596;9.960;2023-12-20T07:16:52;100262.47;;;5.74;nan
14343;BME280;7255;53.596;9.960;2023-12-20T07:19:19;100259.19;;;5.72;nan
14343;BME280;7255;53.596;9.960;2023-12-20T07:21:48;100259.19;;;5.72;nan
14343;BME280;7255;53.596;9.960;2023-12-20T07:24:18;100265.75;;;5.76;nan
14343;BME280;7255;53.596;9.960;2023-12-20T07:26:44;100266.16;;;5.80;nan
14343;BME280;7255;53.596;9.960;2023-12-20T07:29:11;100264.94;;;5.76;nan
14343;BME280;7255;53.596;9.960;2023-12-20T07:31:38;100264.50;;;5.86;nan
14343;BME280;7255;53.596;9.960;2023-12-20T07:34:05;100267.00;;;5.94;nan
14343;BME280;7255;53.596;9.960;2023-12-20T07:36:31;100269.47;;;6.02;nan
14343;BME280;7255;53.596;9.960;2023-12-20T07:38:57;100276.47;;;6.03;nan
14343;BME280;7255;53.596;9.960;2023-12-20T07:41:24;100258.38;;;5.98;nan
14343;BME280;7255;53.596;9.960;2023-12-20T07:43:50;100261.25;;;5.97;nan
14343;BME280;7255;53.596;9.960;2023-12-20T07:46:17;100250.59;;;5.97;nan
14343;BME280;7255;53.596;9.960;2023-12-20T07:48:49;100239.09;;;5.90;nan
14343;BME280;7255;53.596;9.960;2023-12-20T07:51:15;100242.81;;;5.95;nan
14343;BME280;7255;53.596;9.960;2023-12-20T07:53:41;100252.66;;;6.08;nan
14343;BME280;7255;53.596;9.960;2023-12-20T07:56:17;100243.22;;;6.06;nan
14343;BME280;7255;53.596;9.960;2023-12-20T07:58:44;100237.47;;;6.02;nan
14343;BME280;7255;53.596;9.960;2023-12-20T08:01:11;100245.25;;;6.04;nan
14343;BME280;7255;53.596;9.960;2023-12-20T08:03:37;100235.41;;;6.04;nan
14343;BME280;7255;53.596;9.960;2023-12-20T08:06:05;100233.37;;;6.06;nan
14343;BME280;7255;53.596;9.960;2023-12-20T08:08:32;100244.44;;;6.10;nan
14343;BME280;7255;53.596;9.960;2023-12-20T08:10:58;100241.19;;;6.01;nan
14343;BME280;7255;53.596;9.960;2023-12-20T08:13:25;100222.28;;;6.09;nan
14343;BME280;7255;53.596;9.960;2023-12-20T08:15:52;100225.56;;;6.11;nan
14343;BME280;7255;53.596;9.960;2023-12-20T08:18:19;100230.87;;;6.18;nan
14343;BME280;7255;53.596;9.960;2023-12-20T08:20:45;100215.31;;;6.08;nan
14343;BME280;7255;53.596;9.960;2023-12-20T08:23:15;100189.06;;;6.12;nan
14343;BME280;7255;53.596;9.960;2023-12-20T08:25:41;100203.41;;;6.18;nan
14343;BME280;7255;53.596;9.960;2023-12-20T08:28:07;100202.56;;;6.24;nan
14343;BME280;7255;53.596;9.960;2023-12-20T08:30:34;100195.97;;;6.26;nan
14343;BME280;7255;53.596;9.960;2023-12-20T08:33:00;100203.37;;;6.31;nan
14343;BME280;7255;53.596;9.960;2023-12-20T08:35:27;100206.22;;;6.36;nan
14343;BME280;7255;53.596;9.960;2023-12-20T08:37:54;100194.31;;;6.39;nan
14343;BME280;7255;53.596;9.960;2023-12-20T08:40:22;100202.09;;;6.47;nan
14343;BME280;7255;53.596;9.960;2023-12-20T08:42:48;100169.28;;;6.33;nan
14343;BME280;7255;53.596;9.960;2023-12-20T08:45:14;100178.28;;;6.39;nan
14343;BME280;7255;53.596;9.960;2023-12-20T08:47:41;100209.87;;;6.48;nan
14343;BME280;7255;53.596;9.960;2023-12-20T08:50:10;100200.38;;;6.66;nan
14343;BME280;7255;53.596;9.960;2023-12-20T08:52:36;100185.63;;;6.63;nan
14343;BME280;7255;53.596;9.960;2023-12-20T08:55:03;100186.91;;;6.47;nan
14343;BME280;7255;53.596;9.960;2023-12-20T08:57:31;100187.69;;;6.54;nan
14343;BME280;7255;53.596;9.960;2023-12-20T08:59:58;100186.91;;;6.41;nan
14343;BME280;7255;53.596;9.960;2023-12-20T09:02:25;100164.41;;;6.16;nan
14343;BME280;7255;53.596;9.960;2023-12-20T09:04:51;100178.34;;;6.19;nan
14343;BME280;7255;53.596;9.960;2023-12-20T09:07:21;100168.09;;;6.22;nan
14343;BME280;7255;53.596;9.960;2023-12-20T09:09:47;100169.34;;;6.20;nan
14343;BME280;7255;53.596;9.960;2023-12-20T09:12:14;100145.94;;;5.95;nan
14343;BME280;7255;53.596;9.960;2023-12-20T09:14:41;100162.37;;;5.98;nan
14343;BME280;7255;53.596;9.960;2023-12-20T09:17:08;100152.53;;;5.92;nan
14343;BME280;7255;53.596;9.960;2023-12-20T09:19:36;100169.78;;;5.83;nan
14343;BME280;7255;53.596;9.960;2023-12-20T09:22:03;100171.44;;;5.77;nan
14343;BME280;7255;53.596;9.960;2023-12-20T09:24:30;100195.59;;;5.69;nan
14343;BME280;7255;53.596;9.960;2023-12-20T09:26:56;100215.72;;;5.72;nan
14343;BME280;7255;53.596;9.960;2023-12-20T09:29:22;100189.87;;;5.59;nan
14343;BME280;7255;53.596;9.960;2023-12-20T09:31:51;100162.41;;;5.45;nan
14343;BME280;7255;53.596;9.960;2023-12-20T09:34:17;100168.97;;;5.43;nan
14343;BME280;7255;53.596;9.960;2023-12-20T09:36:43;100157.88;;;5.32;nan
14343;BME280;7255;53.596;9.960;2023-12-20T09:39:11;100192.34;;;5.40;nan
14343;BME280;7255;53.596;9.960;2023-12-20T09:41:43;100180.44;;;5.30;nan
14343;BME280;7255;53.596;9.960;2023-12-20T09:44:11;100192.72;;;5.24;nan
14343;BME280;7255;53.596;9.960;2023-12-20T09:46:42;100216.91;;;5.23;nan
14343;BME280;7255;53.596;9.960;2023-12-20T09:49:10;100185.75;;;5.30;nan
14343;BME280;7255;53.596;9.960;2023-12-20T09:51:37;100193.50;;;5.18;nan
14343;BME280;7255;53.596;9.960;2023-12-20T09:54:04;100197.59;;;5.14;nan
14343;BME280;7255;53.596;9.960;2023-12-20T09:56:31;100216.91;;;5.23;nan
14343;BME280;7255;53.596;9.960;2023-12-20T09:58:57;100204.16;;;5.18;nan
14343;BME280;7255;53.596;9.960;2023-12-20T10:01:23;100194.72;;;5.09;nan
14343;BME280;7255;53.596;9.960;2023-12-20T10:03:51;100189.00;;;5.12;nan
14343;BME280;7255;53.596;9.960;2023-12-20T10:06:18;100185.31;;;5.13;nan
14343;BME280;7255;53.596;9.960;2023-12-20T10:08:45;100189.00;;;5.12;nan
14343;BME280;7255;53.596;9.960;2023-12-20T10:11:11;100188.19;;;5.11;nan
14343;BME280;7255;53.596;9.960;2023-12-20T10:13:39;100191.03;;;5.03;nan
14343;BME280;7255;53.596;9.960;2023-12-20T10:16:06;100188.12;;;4.85;nan
14343;BME280;7255;53.596;9.960;2023-12-20T10:18:32;100262.69;;;4.91;nan
14343;BME280;7255;53.596;9.960;2023-12-20T10:21:00;100217.19;;;4.86;nan
14343;BME280;7255;53.596;9.960;2023-12-20T10:23:27;100212.34;;;4.96;nan
14343;BME280;7255;53.596;9.960;2023-12-20T10:25:56;100196.31;;;4.90;nan
14343;BME280;7255;53.596;9.960;2023-12-20T10:28:23;100209.06;;;5.01;nan
14343;BME280;7255;53.596;9.960;2023-12-20T10:30:53;100197.16;;;5.04;nan
14343;BME280;7255;53.596;9.960;2023-12-20T10:33:24;100189.81;;;5.06;nan
14343;BME280;7255;53.596;9.960;2023-12-20T10:35:50;100176.72;;;5.04;nan
14343;BME280;7255;53.596;9.960;2023-12-20T10:38:16;100188.97;;;5.05;nan
14343;BME280;7255;53.596;9.960;2023-12-20T10:40:45;100190.63;;;5.13;nan
14343;BME280;7255;53.596;9.960;2023-12-20T10:43:12;100191.47;;;5.20;nan
14343;BME280;7255;53.596;9.960;2023-12-20T10:45:38;100184.50;;;5.12;nan
14343;BME280;7255;53.596;9.960;2023-12-20T10:48:05;100173.41;;;5.09;nan
14343;BME280;7255;53.596;9.960;2023-12-20T10:50:36;100162.75;;;4.95;nan
14343;BME280;7255;53.596;9.960;2023-12-20T10:53:06;100167.69;;;4.98;nan
14343;BME280;7255;53.596;9.960;2023-12-20T10:55:32;100165.22;;;4.97;nan
14343;BME280;7255;53.596;9.960;2023-12-20T10:58:03;100161.16;;;5.08;nan
14343;BME280;7255;53.596;9.960;2023-12-20T11:00:33;100178.78;;;5.15;nan
14343;BME280;7255;53.596;9.960;2023-12-20T11:03:01;100148.03;;;5.06;nan
14343;BME280;7255;53.596;9.960;2023-12-20T11:05:33;100166.47;;;5.08;nan
14343;BME280;7255;53.596;9.960;2023-12-20T11:08:07;100162.78;;;5.09;nan
14343;BME280;7255;53.596;9.960;2023-12-20T11:10:40;100165.63;;;5.07;nan
14343;BME280;7255;53.596;9.960;2023-12-20T11:13:14;100173.03;;;5.25;nan
14343;BME280;7255;53.596;9.960;2023-12-20T11:15:42;100168.56;;;5.26;nan
14343;BME280;7255;53.596;9.960;2023-12-20T11:18:09;100185.34;;;5.33;nan
14343;BME280;7255;53.596;9.960;2023-12-20T11:20:36;100199.69;;;5.25;nan
14343;BME280;7255;53.596;9.960;2023-12-20T11:23:03;100186.56;;;5.30;nan
14343;BME280;7255;53.596;9.960;2023-12-20T11:25:45;100183.31;;;5.35;nan
14343;BME280;7255;53.596;9.960;2023-12-20T11:28:13;100188.63;;;5.42;nan
14343;BME280;7255;53.596;9.960;2023-12-20T11:30:45;100228.38;;;5.36;nan
14343;BME280;7255;53.596;9.960;2023-12-20T11:33:13;100207.78;;;4.90;nan
14343;BME280;7255;53.596;9.960;2023-12-20T11:35:39;100165.47;;;4.47;nan
14343;BME280;7255;53.596;9.960;2023-12-20T11:38:07;100184.62;;;4.29;nan
14343;BME280;7255;53.596;9.960;2023-12-20T11:40:35;100177.69;;;4.35;nan
14343;BME280;7255;53.596;9.960;2023-12-20T11:43:02;100172.41;;;4.48;nan
14343;BME280;7255;53.596;9.960;2023-12-20T11:45:30;100188.03;;;4.58;nan
14343;BME280;7255;53.596;9.960;2023-12-20T11:47:57;100173.66;;;4.52;nan
14343;BME280;7255;53.596;9.960;2023-12-20T11:50:24;100155.69;;;4.54;nan
14343;BME280;7255;53.596;9.960;2023-12-20T11:52:52;100163.47;;;4.62;nan
14343;BME280;7255;53.596;9.960;2023-12-20T11:55:19;100169.63;;;4.70;nan
14343;BME280;7255;53.596;9.960;2023-12-20T11:57:45;100177.44;;;4.78;nan
14343;BME280;7255;53.596;9.960;2023-12-20T12:00:13;100170.91;;;4.80;nan
14343;BME280;7255;53.596;9.960;2023-12-20T12:02:41;100163.97;;;4.86;nan
14343;BME280;7255;53.596;9.960;2023-12-20T12:05:07;100174.62;;;4.93;nan
14343;BME280;7255;53.596;9.960;2023-12-20T12:07:34;100175.06;;;4.96;nan
14343;BME280;7255;53.596;9.960;2023-12-20T12:10:01;100177.06;;;4.94;nan
14343;BME280;7255;53.596;9.960;2023-12-20T12:12:28;100168.47;;;4.86;nan
14343;BME280;7255;53.596;9.960;2023-12-20T12:14:55;100177.91;;;4.95;nan
14343;BME280;7255;53.596;9.960;2023-12-20T12:17:22;100176.69;;;4.97;nan
14343;BME280;7255;53.596;9.960;2023-12-20T12:19:50;100177.94;;;5.08;nan
14343;BME280;7255;53.596;9.960;2023-12-20T12:22:17;100175.91;;;5.17;nan
14343;BME280;7255;53.596;9.960;2023-12-20T12:24:45;100112.00;;;5.37;nan
14343;BME280;7255;53.596;9.960;2023-12-20T12:27:13;100168.56;;;5.39;nan
14343;BME280;7255;53.596;9.960;2023-12-20T12:29:39;100168.53;;;5.46;nan
14343;BME280;7255;53.596;9.960;2023-12-20T12:32:07;100168.97;;;5.56;nan
14343;BME280;7255;53.596;9.960;2023-12-20T12:34:34;100168.97;;;5.76;nan
14343;BME280;7255;53.596;9.960;2023-12-20T12:37:03;100152.94;;;5.89;nan
14343;BME280;7255;53.596;9.960;2023-12-20T12:39:30;100195.19;;;5.92;nan
14343;BME280;7255;53.596;9.960;2023-12-20T12:41:56;100174.69;;;5.73;nan
14343;BME280;7255;53.596;9.960;2023-12-20T12:44:23;100194.78;;;5.89;nan
14343;BME280;7255;53.596;9.960;2023-12-20T12:46:50;100182.87;;;5.91;nan
14343;BME280;7255;53.596;9.960;2023-12-20T12:49:18;100184.94;;;5.89;nan
14343;BME280;7255;53.596;9.960;2023-12-20T12:51:45;100161.56;;;5.78;nan
14343;BME280;7255;53.596;9.960;2023-12-20T12:54:13;100175.13;;;5.70;nan
14343;BME280;7255;53.596;9.960;2023-12-20T12:56:41;100179.63;;;5.76;nan
14343;BME280;7255;53.596;9.960;2023-12-20T12:59:08;100175.09;;;5.76;nan
14343;BME280;7255;53.596;9.960;2023-12-20T13:01:34;100153.78;;;5.83;nan
14343;BME280;7255;53.596;9.960;2023-12-20T13:04:00;100182.47;;;5.88;nan
14343;BME280;7255;53.596;9.960;2023-12-20T13:06:28;100182.91;;;5.85;nan
14343;BME280;7255;53.596;9.960;2023-12-20T13:08:55;100169.37;;;5.79;nan
14343;BME280;7255;53.596;9.960;2023-12-20T13:11:22;100180.03;;;5.79;nan
14343;BME280;7255;53.596;9.960;2023-12-20T13:13:50;100183.31;;;5.82;nan
14343;BME280;7255;53.596;9.960;2023-12-20T13:16:16;100188.22;;;5.91;nan
14343;BME280;7255;53.596;9.960;2023-12-20T13:18:42;100182.06;;;5.91;nan
14343;BME280;7255;53.596;9.960;2023-12-20T13:21:09;100190.69;;;5.79;nan
14343;BME280;7255;53.596;9.960;2023-12-20T13:23:35;100170.22;;;5.73;nan
14343;BME280;7255;53.596;9.960;2023-12-20T13:26:02;100178.38;;;5.78;nan
14343;BME280;7255;53.596;9.960;2023-12-20T13:28:30;100182.50;;;5.74;nan
14343;BME280;7255;53.596;9.960;2023-12-20T13:30:56;100194.81;;;5.75;nan